Time;durP1;ratioP1;P1;durP2;ratioP2;P2;SDS_P1;SDS_P2;PMS_P1;PMS_P2;Temp;Humidity;BMP_temperature;BMP_pressure;BME280_temperature;BME280_humidity;BME280_pressure;Samples;Min_cycle;Max_cycle;Signal;HPM_P1;HPM_P2
2023/08/11 00:00:58;;;;;;;12.00;8.00;;;;;;;;;;107390;1249;61915;-80
2023/08/11 00:03:32;;;;;;;15.30;8.50;;;;;;;;;;107386;1249;61963;-80
2023/08/11 00:05:59;;;;;;;13.10;7.90;;;;;;;;;;107358;1253;62115;-80
2023/08/11 00:08:25;;;;;;;16.70;8.90;;;;;;;;;;107391;1249;62045;-81
2023/08/11 00:10:52;;;;;;;16.00;9.00;;;;;;;;;;107414;1250;62048;-80
2023/08/11 00:13:18;;;;;;;15.20;7.80;;;;;;;;;;107418;1251;61900;-80
2023/08/11 00:15:45;;;;;;;10.20;7.80;;;;;;;;;;107358;1249;62085;-80
2023/08/11 00:18:11;;;;;;;13.90;8.00;;;;;;;;;;107415;1249;62149;-80
2023/08/11 00:20:38;;;;;;;12.40;8.10;;;;;;;;;;107336;1250;61977;-80
2023/08/11 00:23:04;;;;;;;11.80;7.50;;;;;;;;;;107343;1250;62133;-80
2023/08/11 00:25:31;;;;;;;28.30;10.20;;;;;;;;;;107368;1252;61987;-80
2023/08/11 00:27:58;;;;;;;14.50;7.50;;;;;;;;;;107358;1250;61911;-80
2023/08/11 00:30:25;;;;;;;13.20;8.60;;;;;;;;;;107358;1252;62128;-80
2023/08/11 00:32:51;;;;;;;10.90;7.80;;;;;;;;;;107354;1251;61926;-81
2023/08/11 00:35:18;;;;;;;11.50;8.10;;;;;;;;;;107308;1251;62144;-80
2023/08/11 00:37:44;;;;;;;9.70;6.40;;;;;;;;;;107345;1251;62070;-80
2023/08/11 00:40:11;;;;;;;10.30;7.40;;;;;;;;;;107385;1251;60428;-81
2023/08/11 00:42:38;;;;;;;10.60;7.70;;;;;;;;;;107463;1250;62120;-80
2023/08/11 00:45:05;;;;;;;13.40;6.80;;;;;;;;;;108084;1249;61952;-80
2023/08/11 00:47:32;;;;;;;11.80;7.70;;;;;;;;;;107395;1250;62132;-80
2023/08/11 00:49:59;;;;;;;12.00;7.50;;;;;;;;;;107428;1250;60296;-80
2023/08/11 00:52:25;;;;;;;9.40;7.90;;;;;;;;;;107401;1252;62049;-80
2023/08/11 00:54:52;;;;;;;11.00;8.00;;;;;;;;;;107400;1250;62021;-80
2023/08/11 00:57:18;;;;;;;11.30;7.80;;;;;;;;;;107388;1250;62062;-80
2023/08/11 00:59:46;;;;;;;11.40;8.00;;;;;;;;;;107399;1250;62232;-80
2023/08/11 01:02:12;;;;;;;13.20;7.60;;;;;;;;;;107405;1255;61953;-80
2023/08/11 01:04:39;;;;;;;11.00;7.60;;;;;;;;;;107450;1254;61968;-80
2023/08/11 01:07:12;;;;;;;11.30;11.30;;;;;;;;;;107415;1250;63011;-80
2023/08/11 01:09:53;;;;;;;13.10;8.60;;;;;;;;;;107404;1250;63119;-81
2023/08/11 01:12:23;;;;;;;13.70;8.40;;;;;;;;;;107382;1249;61927;-80
2023/08/11 01:15:10;;;;;;;10.50;7.50;;;;;;;;;;107436;1255;62115;-80
2023/08/11 01:17:40;;;;;;;13.10;7.70;;;;;;;;;;107419;1250;62040;-81
2023/08/11 01:20:10;;;;;;;11.60;9.00;;;;;;;;;;107679;1249;62014;-80
2023/08/11 01:22:38;;;;;;;13.20;8.70;;;;;;;;;;107335;1255;62057;-80
2023/08/11 01:25:08;;;;;;;14.80;8.00;;;;;;;;;;107350;1250;62085;-81
2023/08/11 01:27:35;;;;;;;10.70;7.30;;;;;;;;;;107371;1255;62033;-80
2023/08/11 01:30:01;;;;;;;13.20;7.40;;;;;;;;;;107379;1250;62099;-80
2023/08/11 01:32:28;;;;;;;11.80;7.50;;;;;;;;;;107365;1251;61148;-80
2023/08/11 01:34:54;;;;;;;12.60;6.90;;;;;;;;;;107306;1256;62099;-80
2023/08/11 01:37:21;;;;;;;13.60;8.60;;;;;;;;;;107327;1251;62035;-80
2023/08/11 01:39:48;;;;;;;12.60;7.90;;;;;;;;;;107294;1253;60109;-80
2023/08/11 01:42:15;;;;;;;12.70;7.60;;;;;;;;;;107412;1255;62045;-80
2023/08/11 01:44:41;;;;;;;11.90;7.80;;;;;;;;;;107434;1250;62170;-80
2023/08/11 01:47:09;;;;;;;10.90;7.30;;;;;;;;;;107547;1250;62039;-80
2023/08/11 01:49:36;;;;;;;11.70;6.80;;;;;;;;;;107526;1250;62089;-81
2023/08/11 01:52:03;;;;;;;10.10;7.00;;;;;;;;;;107367;1254;61938;-81
2023/08/11 01:54:29;;;;;;;11.50;7.50;;;;;;;;;;107455;1251;61920;-81
2023/08/11 01:56:56;;;;;;;12.30;6.70;;;;;;;;;;107379;1249;62036;-81
2023/08/11 01:59:22;;;;;;;12.40;8.20;;;;;;;;;;107331;1251;62250;-81
2023/08/11 02:01:48;;;;;;;9.80;7.50;;;;;;;;;;107280;1250;62081;-81
2023/08/11 02:04:15;;;;;;;8.40;6.90;;;;;;;;;;107426;1254;62144;-81
2023/08/11 02:06:41;;;;;;;11.70;7.60;;;;;;;;;;107293;1250;63046;-81
2023/08/11 02:09:09;;;;;;;10.90;7.40;;;;;;;;;;107873;1252;62146;-81
2023/08/11 02:11:36;;;;;;;11.80;6.80;;;;;;;;;;107374;1254;62101;-81
2023/08/11 02:14:03;;;;;;;20.40;8.30;;;;;;;;;;107766;1251;61905;-81
2023/08/11 02:16:30;;;;;;;13.60;8.70;;;;;;;;;;107328;1253;61960;-80
2023/08/11 02:18:56;;;;;;;12.90;7.90;;;;;;;;;;107395;1253;62022;-81
2023/08/11 02:21:22;;;;;;;13.00;8.00;;;;;;;;;;107288;1255;62032;-81
2023/08/11 02:23:49;;;;;;;10.40;7.70;;;;;;;;;;107322;1251;62044;-81
2023/08/11 02:26:15;;;;;;;10.30;7.20;;;;;;;;;;107327;1254;62031;-81
2023/08/11 02:28:42;;;;;;;10.60;6.80;;;;;;;;;;107462;1251;62140;-81
2023/08/11 02:31:08;;;;;;;11.60;7.90;;;;;;;;;;107339;1252;62234;-81
2023/08/11 02:33:35;;;;;;;9.00;6.90;;;;;;;;;;107362;1250;62145;-81
2023/08/11 02:36:02;;;;;;;11.30;8.00;;;;;;;;;;107359;1253;62063;-81
2023/08/11 02:38:29;;;;;;;13.70;8.30;;;;;;;;;;107374;1251;62037;-81
2023/08/11 02:40:55;;;;;;;12.20;8.70;;;;;;;;;;107400;1255;62160;-81
2023/08/11 02:43:21;;;;;;;8.00;6.30;;;;;;;;;;107410;1256;60290;-81
2023/08/11 02:45:48;;;;;;;10.30;7.30;;;;;;;;;;107436;1250;62123;-81
2023/08/11 02:48:14;;;;;;;10.80;7.10;;;;;;;;;;107310;1254;62136;-81
2023/08/11 02:50:40;;;;;;;9.50;6.80;;;;;;;;;;107291;1251;62094;-80
2023/08/11 02:53:07;;;;;;;9.70;6.80;;;;;;;;;;107386;1251;62058;-81
2023/08/11 02:55:33;;;;;;;9.00;6.20;;;;;;;;;;107362;1254;62155;-81
2023/08/11 02:57:59;;;;;;;8.90;6.10;;;;;;;;;;107429;1253;62174;-81
2023/08/11 03:00:26;;;;;;;10.30;6.70;;;;;;;;;;107364;1254;62062;-80
2023/08/11 03:02:52;;;;;;;13.30;7.60;;;;;;;;;;107360;1251;62042;-81
2023/08/11 03:05:19;;;;;;;12.00;8.10;;;;;;;;;;107357;1253;62053;-81
2023/08/11 03:07:46;;;;;;;14.30;7.30;;;;;;;;;;107477;1250;62494;-81
2023/08/11 03:10:12;;;;;;;11.70;7.80;;;;;;;;;;108401;1253;62155;-81
2023/08/11 03:12:39;;;;;;;9.60;7.00;;;;;;;;;;107345;1254;60721;-81
2023/08/11 03:15:05;;;;;;;11.10;8.20;;;;;;;;;;107386;1253;63212;-81
2023/08/11 03:17:32;;;;;;;12.00;7.10;;;;;;;;;;107591;1254;62168;-80
2023/08/11 03:19:59;;;;;;;8.80;7.00;;;;;;;;;;107511;1252;62156;-81
2023/08/11 03:22:26;;;;;;;13.40;7.60;;;;;;;;;;107434;1251;62072;-81
2023/08/11 03:24:53;;;;;;;9.70;7.60;;;;;;;;;;107399;1251;62051;-81
2023/08/11 03:27:19;;;;;;;9.80;7.50;;;;;;;;;;107344;1254;62857;-81
2023/08/11 03:29:45;;;;;;;11.70;7.00;;;;;;;;;;107293;1253;62070;-81
2023/08/11 03:32:12;;;;;;;9.70;6.60;;;;;;;;;;107300;1256;61965;-81
2023/08/11 03:34:39;;;;;;;11.20;6.70;;;;;;;;;;107349;1255;62140;-81
2023/08/11 03:37:06;;;;;;;8.60;5.80;;;;;;;;;;107286;1251;62165;-81
2023/08/11 03:39:33;;;;;;;9.10;6.10;;;;;;;;;;107559;1254;62119;-81
2023/08/11 03:41:59;;;;;;;10.40;7.00;;;;;;;;;;107321;1254;62025;-81
2023/08/11 03:44:26;;;;;;;9.80;6.10;;;;;;;;;;107367;1251;62037;-82
2023/08/11 03:46:52;;;;;;;11.30;7.10;;;;;;;;;;107327;1251;62159;-81
2023/08/11 03:49:18;;;;;;;9.70;7.00;;;;;;;;;;107348;1251;61913;-81
2023/08/11 03:51:45;;;;;;;12.40;7.30;;;;;;;;;;107346;1254;62048;-80
2023/08/11 03:54:11;;;;;;;11.70;6.80;;;;;;;;;;107360;1253;62245;-81
2023/08/11 03:56:38;;;;;;;12.60;6.70;;;;;;;;;;107332;1253;62158;-80
2023/08/11 03:59:04;;;;;;;11.60;8.10;;;;;;;;;;107429;1251;62138;-81
2023/08/11 04:01:31;;;;;;;8.40;6.20;;;;;;;;;;107349;1251;62075;-80
2023/08/11 04:03:57;;;;;;;11.80;6.60;;;;;;;;;;107400;1253;62865;-81
2023/08/11 04:06:31;;;;;;;9.60;6.80;;;;;;;;;;107321;1254;62036;-81
2023/08/11 04:08:59;;;;;;;10.00;6.50;;;;;;;;;;107405;1254;59950;-81
2023/08/11 04:11:26;;;;;;;12.40;7.00;;;;;;;;;;107458;1253;62480;-81
2023/08/11 04:13:53;;;;;;;11.70;7.60;;;;;;;;;;107368;1251;62115;-81
2023/08/11 04:16:20;;;;;;;12.00;8.30;;;;;;;;;;107329;1254;62149;-81
2023/08/11 04:18:46;;;;;;;10.70;7.40;;;;;;;;;;107498;1253;62017;-81
2023/08/11 04:21:12;;;;;;;17.60;10.60;;;;;;;;;;107406;1253;62050;-81
2023/08/11 04:23:40;;;;;;;9.20;6.30;;;;;;;;;;107364;1249;62048;-81
2023/08/11 04:26:06;;;;;;;8.80;5.90;;;;;;;;;;107338;1251;62160;-81
2023/08/11 04:28:33;;;;;;;11.10;7.60;;;;;;;;;;107277;1251;62191;-81
2023/08/11 04:31:00;;;;;;;7.20;5.60;;;;;;;;;;107313;1254;62034;-81
2023/08/11 04:33:28;;;;;;;11.60;6.20;;;;;;;;;;107309;1251;62066;-81
2023/08/11 04:35:54;;;;;;;17.00;7.20;;;;;;;;;;107287;1255;62155;-81
2023/08/11 04:38:21;;;;;;;13.30;8.20;;;;;;;;;;107300;1251;62038;-82
2023/08/11 04:40:50;;;;;;;11.30;7.30;;;;;;;;;;107281;1251;62130;-81
2023/08/11 04:43:18;;;;;;;11.40;7.00;;;;;;;;;;107347;1249;62143;-81
2023/08/11 04:45:45;;;;;;;10.40;7.40;;;;;;;;;;107341;1256;61894;-81
2023/08/11 04:48:11;;;;;;;10.20;7.10;;;;;;;;;;107491;1251;62067;-81
2023/08/11 04:50:38;;;;;;;13.90;7.50;;;;;;;;;;107413;1253;62147;-81
2023/08/11 04:53:04;;;;;;;10.40;7.00;;;;;;;;;;107394;1251;61148;-81
2023/08/11 04:55:31;;;;;;;11.00;7.10;;;;;;;;;;107358;1251;62056;-81
2023/08/11 04:57:57;;;;;;;9.40;7.40;;;;;;;;;;107396;1251;62005;-81
2023/08/11 05:00:24;;;;;;;11.90;7.80;;;;;;;;;;107371;1253;62804;-81
2023/08/11 05:02:52;;;;;;;9.20;7.20;;;;;;;;;;107278;1253;61962;-81
2023/08/11 05:05:19;;;;;;;15.30;8.50;;;;;;;;;;107528;1254;61980;-81
2023/08/11 05:07:46;;;;;;;9.50;7.30;;;;;;;;;;107442;1250;62144;-81
2023/08/11 05:10:13;;;;;;;16.00;9.00;;;;;;;;;;107347;1254;61155;-81
2023/08/11 05:12:39;;;;;;;15.30;8.30;;;;;;;;;;107357;1251;62127;-81
2023/08/11 05:15:06;;;;;;;7.90;6.40;;;;;;;;;;107374;1250;62038;-81
2023/08/11 05:17:33;;;;;;;9.80;7.40;;;;;;;;;;107326;1251;62076;-81
2023/08/11 05:20:00;;;;;;;12.40;7.20;;;;;;;;;;107336;1251;62149;-81
2023/08/11 05:22:26;;;;;;;15.50;7.60;;;;;;;;;;107366;1251;60623;-81
2023/08/11 05:24:53;;;;;;;12.30;8.50;;;;;;;;;;107391;1251;60032;-81
2023/08/11 05:27:19;;;;;;;16.80;10.00;;;;;;;;;;107364;1251;62019;-81
2023/08/11 05:29:48;;;;;;;13.70;7.30;;;;;;;;;;107420;1251;62090;-81
2023/08/11 05:32:14;;;;;;;13.70;7.30;;;;;;;;;;107371;1251;60209;-81
2023/08/11 05:34:40;;;;;;;10.60;7.60;;;;;;;;;;107405;1251;62144;-81
2023/08/11 05:37:07;;;;;;;9.70;6.70;;;;;;;;;;107370;1250;62058;-81
2023/08/11 05:39:34;;;;;;;10.50;7.10;;;;;;;;;;107334;1250;62033;-81
2023/08/11 05:42:00;;;;;;;10.30;7.40;;;;;;;;;;107290;1253;62015;-81
2023/08/11 05:44:27;;;;;;;12.80;7.30;;;;;;;;;;107421;1250;62042;-81
2023/08/11 05:46:54;;;;;;;11.00;7.40;;;;;;;;;;107344;1251;61905;-81
2023/08/11 05:49:20;;;;;;;11.30;8.10;;;;;;;;;;107371;1253;62053;-81
2023/08/11 05:51:46;;;;;;;11.90;8.30;;;;;;;;;;107399;1250;62053;-81
2023/08/11 05:54:13;;;;;;;10.60;7.10;;;;;;;;;;107808;1251;62163;-81
2023/08/11 05:56:39;;;;;;;10.10;6.80;;;;;;;;;;107408;1251;62143;-79
2023/08/11 05:59:06;;;;;;;7.90;6.30;;;;;;;;;;106837;1251;62037;-81
2023/08/11 06:01:33;;;;;;;9.10;6.00;;;;;;;;;;107372;1253;62040;-81
2023/08/11 06:03:59;;;;;;;11.40;7.10;;;;;;;;;;107406;1251;62050;-81
2023/08/11 06:06:26;;;;;;;11.80;8.60;;;;;;;;;;107429;1251;62182;-83
2023/08/11 06:08:54;;;;;;;12.00;8.00;;;;;;;;;;107471;1253;62163;-81
2023/08/11 06:11:21;;;;;;;10.40;6.60;;;;;;;;;;107436;1251;62022;-81
2023/08/11 06:13:47;;;;;;;9.10;7.10;;;;;;;;;;107398;1251;61923;-81
2023/08/11 06:16:13;;;;;;;11.90;6.90;;;;;;;;;;107368;1251;62069;-81
2023/08/11 06:18:40;;;;;;;10.40;7.40;;;;;;;;;;107414;1251;62037;-79
2023/08/11 06:21:06;;;;;;;8.80;6.80;;;;;;;;;;106811;1254;62066;-81
2023/08/11 06:23:33;;;;;;;9.70;6.40;;;;;;;;;;107503;1249;62052;-81
2023/08/11 06:25:59;;;;;;;12.70;7.90;;;;;;;;;;107553;1251;62146;-79
2023/08/11 06:28:26;;;;;;;13.90;7.00;;;;;;;;;;106899;1254;62112;-81
2023/08/11 06:30:52;;;;;;;11.40;7.40;;;;;;;;;;107455;1249;62035;-80
2023/08/11 06:33:19;;;;;;;11.40;6.50;;;;;;;;;;106846;1251;62108;-79
2023/08/11 06:35:46;;;;;;;10.10;7.60;;;;;;;;;;107468;1253;62125;-79
2023/08/11 06:38:12;;;;;;;11.20;7.30;;;;;;;;;;107273;1251;62073;-79
2023/08/11 06:40:39;;;;;;;8.50;6.30;;;;;;;;;;106975;1251;62035;-79
2023/08/11 06:43:08;;;;;;;9.20;6.80;;;;;;;;;;107016;1254;62245;-79
2023/08/11 06:45:35;;;;;;;8.10;5.90;;;;;;;;;;107416;1254;62029;-80
2023/08/11 06:48:01;;;;;;;8.40;5.60;;;;;;;;;;107250;1251;62146;-79
2023/08/11 06:50:27;;;;;;;16.00;9.10;;;;;;;;;;107127;1251;61940;-80
2023/08/11 06:52:54;;;;;;;9.40;5.70;;;;;;;;;;107227;1250;62145;-79
2023/08/11 06:55:20;;;;;;;19.60;8.60;;;;;;;;;;108471;1250;61886;-79
2023/08/11 06:57:54;;;;;;;11.70;7.70;;;;;;;;;;104006;1289;600489;-80
2023/08/11 07:00:21;;;;;;;7.10;5.00;;;;;;;;;;106408;1266;59908;-80
2023/08/11 07:02:47;;;;;;;7.20;5.40;;;;;;;;;;105695;1265;59046;-80
2023/08/11 07:05:14;;;;;;;9.40;5.20;;;;;;;;;;105738;1265;59171;-80
2023/08/11 07:07:40;;;;;;;5.90;5.00;;;;;;;;;;105869;1267;59145;-80
2023/08/11 07:10:07;;;;;;;8.20;5.20;;;;;;;;;;105754;1265;58973;-79
2023/08/11 07:12:33;;;;;;;6.20;4.90;;;;;;;;;;105802;1263;178048;-80
2023/08/11 07:14:59;;;;;;;9.20;5.40;;;;;;;;;;106027;1263;59176;-80
2023/08/11 07:17:26;;;;;;;7.80;5.40;;;;;;;;;;105895;1262;59212;-80
2023/08/11 07:19:52;;;;;;;7.30;4.30;;;;;;;;;;105817;1263;59158;-80
2023/08/11 07:22:19;;;;;;;7.50;4.80;;;;;;;;;;106366;1263;59428;-80
2023/08/11 07:24:45;;;;;;;6.20;4.50;;;;;;;;;;106580;1263;59653;-80
2023/08/11 07:27:11;;;;;;;9.40;5.10;;;;;;;;;;106528;1263;59648;-80
2023/08/11 07:29:38;;;;;;;7.20;5.00;;;;;;;;;;106444;1263;59661;-80
2023/08/11 07:32:04;;;;;;;5.40;4.50;;;;;;;;;;106319;1263;59501;-80
2023/08/11 07:34:31;;;;;;;10.80;5.20;;;;;;;;;;106358;1263;58941;-80
2023/08/11 07:36:57;;;;;;;9.20;4.40;;;;;;;;;;106456;1263;59658;-80
2023/08/11 07:39:24;;;;;;;11.30;4.70;;;;;;;;;;106457;1262;59736;-80
2023/08/11 07:41:50;;;;;;;6.60;4.40;;;;;;;;;;106455;1263;59568;-80
2023/08/11 07:44:17;;;;;;;6.60;4.70;;;;;;;;;;106585;1264;59687;-81
2023/08/11 07:46:43;;;;;;;6.20;4.70;;;;;;;;;;106482;1263;59649;-81
2023/08/11 07:49:09;;;;;;;5.00;3.90;;;;;;;;;;106581;1260;59724;-81
2023/08/11 07:51:36;;;;;;;5.70;3.50;;;;;;;;;;106503;1262;59736;-80
2023/08/11 07:54:02;;;;;;;4.10;3.60;;;;;;;;;;106424;1266;59637;-81
2023/08/11 07:56:29;;;;;;;4.90;3.70;;;;;;;;;;108025;1262;59748;-81
2023/08/11 07:58:56;;;;;;;4.80;3.40;;;;;;;;;;108793;1262;57389;-81
2023/08/11 08:01:23;;;;;;;4.40;3.10;;;;;;;;;;108834;1262;57324;-81
2023/08/11 08:03:49;;;;;;;4.70;3.70;;;;;;;;;;108768;1264;57274;-81
2023/08/11 08:06:17;;;;;;;4.70;3.60;;;;;;;;;;108776;1262;57517;-81
2023/08/11 08:08:43;;;;;;;5.20;3.60;;;;;;;;;;108720;1267;58325;-81
2023/08/11 08:11:10;;;;;;;4.70;3.30;;;;;;;;;;108784;1262;57308;-82
2023/08/11 08:13:36;;;;;;;4.70;2.70;;;;;;;;;;108806;1263;57371;-81
2023/08/11 08:16:02;;;;;;;3.10;2.50;;;;;;;;;;108796;1262;57333;-81
2023/08/11 08:18:29;;;;;;;4.90;3.40;;;;;;;;;;108771;1262;57813;-81
2023/08/11 08:20:55;;;;;;;5.30;2.80;;;;;;;;;;106901;1262;59806;-81
2023/08/11 08:23:22;;;;;;;8.30;2.50;;;;;;;;;;106286;1263;59754;-81
2023/08/11 08:25:48;;;;;;;5.00;2.50;;;;;;;;;;106393;1267;60169;-81
2023/08/11 08:28:15;;;;;;;3.40;2.60;;;;;;;;;;106401;1265;59730;-81
2023/08/11 08:30:42;;;;;;;2.90;1.90;;;;;;;;;;106284;1266;59801;-81
2023/08/11 08:33:09;;;;;;;3.30;1.90;;;;;;;;;;106389;1263;59778;-81
2023/08/11 08:35:35;;;;;;;3.60;2.20;;;;;;;;;;106808;1254;59608;-81
2023/08/11 08:38:02;;;;;;;2.60;1.90;;;;;;;;;;106944;1256;59739;-81
2023/08/11 08:40:29;;;;;;;3.90;1.70;;;;;;;;;;107388;1256;59492;-81
2023/08/11 08:42:55;;;;;;;2.60;1.80;;;;;;;;;;107213;1255;60986;-81
2023/08/11 08:45:22;;;;;;;4.20;2.00;;;;;;;;;;107114;1259;59663;-81
2023/08/11 08:47:49;;;;;;;3.80;1.50;;;;;;;;;;107188;1256;61718;-81
2023/08/11 08:50:15;;;;;;;4.70;1.50;;;;;;;;;;107320;1256;59027;-80
2023/08/11 08:52:42;;;;;;;2.70;1.00;;;;;;;;;;107123;1256;59419;-82
2023/08/11 08:55:09;;;;;;;2.70;1.40;;;;;;;;;;106875;1256;59615;-81
2023/08/11 08:57:36;;;;;;;2.80;0.90;;;;;;;;;;107006;1256;59736;-81
2023/08/11 09:00:02;;;;;;;2.70;1.00;;;;;;;;;;106923;1256;60420;-81
2023/08/11 09:02:29;;;;;;;2.10;0.80;;;;;;;;;;107126;1256;59574;-81
2023/08/11 09:04:56;;;;;;;4.90;2.30;;;;;;;;;;106868;1256;59503;-81
2023/08/11 09:07:22;;;;;;;2.40;1.30;;;;;;;;;;106845;1256;60387;-81
2023/08/11 09:09:49;;;;;;;3.40;1.20;;;;;;;;;;106859;1256;59693;-81
2023/08/11 09:12:15;;;;;;;1.70;1.20;;;;;;;;;;106827;1259;59473;-81
2023/08/11 09:14:42;;;;;;;3.80;1.40;;;;;;;;;;106742;1256;59749;-81
2023/08/11 09:17:08;;;;;;;3.80;1.30;;;;;;;;;;107202;1255;59626;-81
2023/08/11 09:19:36;;;;;;;1.60;1.00;;;;;;;;;;109302;1255;57903;-82
2023/08/11 09:22:08;;;;;;;3.20;1.40;;;;;;;;;;108646;1257;59538;-82
2023/08/11 09:24:34;;;;;;;2.50;1.50;;;;;;;;;;106896;1259;60406;-82
2023/08/11 09:27:01;;;;;;;4.60;1.60;;;;;;;;;;106829;1256;59653;-81
2023/08/11 09:29:28;;;;;;;2.70;1.30;;;;;;;;;;106990;1255;59622;-82
2023/08/11 09:31:54;;;;;;;3.60;2.10;;;;;;;;;;106824;1255;61291;-82
2023/08/11 09:34:21;;;;;;;4.00;2.40;;;;;;;;;;106852;1256;59756;-82
2023/08/11 09:36:48;;;;;;;3.40;1.70;;;;;;;;;;106745;1259;59725;-81
2023/08/11 09:39:15;;;;;;;2.80;1.60;;;;;;;;;;106595;1259;59625;-81
2023/08/11 09:41:42;;;;;;;2.40;1.40;;;;;;;;;;106539;1255;59534;-81
2023/08/11 09:44:09;;;;;;;3.90;1.40;;;;;;;;;;106656;1256;61242;-82
2023/08/11 09:46:37;;;;;;;3.30;1.80;;;;;;;;;;106522;1255;61473;-82
2023/08/11 09:49:03;;;;;;;;;;;;;;;;;;106658;1256;59708;-82
2023/08/11 09:51:30;;;;;;;3.60;1.70;;;;;;;;;;106567;1256;59641;-82
2023/08/11 09:53:56;;;;;;;4.40;1.50;;;;;;;;;;106772;1256;59686;-82
2023/08/11 09:56:22;;;;;;;5.30;2.00;;;;;;;;;;106909;1259;59785;-82
2023/08/11 09:58:49;;;;;;;4.20;1.70;;;;;;;;;;106929;1256;59733;-82
2023/08/11 10:01:16;;;;;;;3.70;1.40;;;;;;;;;;106840;1256;59688;-82
2023/08/11 10:03:42;;;;;;;6.60;1.80;;;;;;;;;;106752;1258;59743;-81
2023/08/11 10:06:16;;;;;;;2.30;1.60;;;;;;;;;;106549;1256;59459;-82
2023/08/11 10:08:42;;;;;;;3.60;1.60;;;;;;;;;;106557;1259;60236;-82
2023/08/11 10:11:09;;;;;;;2.40;1.90;;;;;;;;;;106585;1256;59536;-82
2023/08/11 10:13:35;;;;;;;3.10;1.80;;;;;;;;;;106487;1256;59541;-82
2023/08/11 10:16:02;;;;;;;2.40;1.80;;;;;;;;;;106489;1259;59595;-82
2023/08/11 10:18:28;;;;;;;2.60;1.60;;;;;;;;;;106621;1259;59558;-82
2023/08/11 10:20:56;;;;;;;4.40;1.70;;;;;;;;;;106542;1260;59701;-82
2023/08/11 10:23:22;;;;;;;3.40;1.40;;;;;;;;;;106498;1255;59669;-82
2023/08/11 10:25:49;;;;;;;3.40;1.60;;;;;;;;;;106449;1256;59693;-82
2023/08/11 10:28:15;;;;;;;3.40;1.90;;;;;;;;;;106611;1256;59640;-82
2023/08/11 10:30:42;;;;;;;3.50;2.00;;;;;;;;;;106420;1259;59725;-82
2023/08/11 10:33:09;;;;;;;2.30;1.50;;;;;;;;;;107057;1256;60523;-82
2023/08/11 10:35:49;;;;;;;2.50;1.50;;;;;;;;;;106851;1256;60014;-82
2023/08/11 10:38:25;;;;;;;3.30;1.30;;;;;;;;;;106826;1256;60671;-82
2023/08/11 10:41:10;;;;;;;1.90;1.40;;;;;;;;;;107026;1256;59614;-82
2023/08/11 10:43:37;;;;;;;3.00;1.40;;;;;;;;;;107150;1256;59022;-82
2023/08/11 10:46:23;;;;;;;3.30;1.60;;;;;;;;;;107033;1256;61472;-82
2023/08/11 10:48:50;;;;;;;2.20;1.60;;;;;;;;;;107123;1256;59541;-82
2023/08/11 10:51:23;;;;;;;3.30;2.20;;;;;;;;;;107196;1255;60739;-82
2023/08/11 10:53:49;;;;;;;3.90;1.40;;;;;;;;;;106875;1255;59733;-82
2023/08/11 10:56:16;;;;;;;2.80;1.60;;;;;;;;;;106897;1259;59059;-82
2023/08/11 10:58:43;;;;;;;3.50;1.90;;;;;;;;;;106781;1259;61283;-82
2023/08/11 11:01:09;;;;;;;1.80;1.30;;;;;;;;;;106816;1256;59647;-83
2023/08/11 11:03:35;;;;;;;3.20;1.40;;;;;;;;;;106894;1257;60553;-82
2023/08/11 11:06:05;;;;;;;4.00;1.30;;;;;;;;;;106905;1255;60540;-82
2023/08/11 11:08:31;;;;;;;3.40;2.90;;;;;;;;;;106863;1255;59079;-82
2023/08/11 11:10:58;;;;;;;3.60;1.40;;;;;;;;;;106844;1255;60438;-83
2023/08/11 11:13:24;;;;;;;2.30;1.40;;;;;;;;;;106863;1256;60374;-83
2023/08/11 11:15:50;;;;;;;4.80;1.70;;;;;;;;;;106923;1256;60632;-82
2023/08/11 11:18:17;;;;;;;4.90;2.00;;;;;;;;;;106944;1256;60457;-82
2023/08/11 11:20:44;;;;;;;2.80;1.50;;;;;;;;;;106993;1259;60362;-82
2023/08/11 11:23:10;;;;;;;4.10;1.80;;;;;;;;;;106984;1259;60444;-82
2023/08/11 11:25:36;;;;;;;3.20;1.80;;;;;;;;;;106978;1260;60424;-82
2023/08/11 11:28:03;;;;;;;2.00;1.30;;;;;;;;;;106944;1259;60541;-82
2023/08/11 11:30:29;;;;;;;3.00;1.50;;;;;;;;;;106796;1256;60426;-82
2023/08/11 11:32:56;;;;;;;3.10;1.50;;;;;;;;;;106775;1256;60558;-82
2023/08/11 11:35:23;;;;;;;4.50;1.50;;;;;;;;;;106818;1256;60388;-82
2023/08/11 11:37:50;;;;;;;2.90;1.60;;;;;;;;;;106857;1256;59718;-81
2023/08/11 11:40:16;;;;;;;5.40;1.40;;;;;;;;;;106780;1260;60432;-82
2023/08/11 11:42:43;;;;;;;6.20;2.00;;;;;;;;;;106664;1255;60590;-82
2023/08/11 11:45:09;;;;;;;2.80;1.90;;;;;;;;;;106856;1256;60438;-81
2023/08/11 11:47:36;;;;;;;2.50;1.80;;;;;;;;;;106885;1259;61209;-81
2023/08/11 11:50:09;;;;;;;2.20;1.50;;;;;;;;;;106829;1255;60448;-81
2023/08/11 11:52:36;;;;;;;5.40;1.70;;;;;;;;;;106756;1257;60501;-81
2023/08/11 11:55:03;;;;;;;2.70;1.50;;;;;;;;;;107188;1251;59359;-81
2023/08/11 11:57:29;;;;;;;3.60;2.00;;;;;;;;;;107101;1251;60488;-81
2023/08/11 11:59:56;;;;;;;2.20;1.60;;;;;;;;;;107154;1251;60537;-81
2023/08/11 12:02:22;;;;;;;2.90;1.70;;;;;;;;;;107112;1251;60369;-81
2023/08/11 12:04:49;;;;;;;6.40;2.00;;;;;;;;;;107323;1252;60346;-81
2023/08/11 12:07:45;;;;;;;3.20;2.20;;;;;;;;;;108426;1256;60514;-81
2023/08/11 12:10:11;;;;;;;3.60;2.10;;;;;;;;;;107043;1251;60310;-82
2023/08/11 12:12:38;;;;;;;4.10;1.70;;;;;;;;;;107013;1251;60394;-81
2023/08/11 12:15:05;;;;;;;5.50;1.60;;;;;;;;;;107574;1251;60430;-81
2023/08/11 12:17:32;;;;;;;4.50;2.30;;;;;;;;;;109397;1253;58540;-82
2023/08/11 12:20:05;;;;;;;4.50;2.30;;;;;;;;;;107134;1251;60435;-82
2023/08/11 12:22:32;;;;;;;1.80;1.50;;;;;;;;;;107121;1251;60425;-82
2023/08/11 12:24:59;;;;;;;2.10;1.40;;;;;;;;;;107185;1251;61385;-82
2023/08/11 12:27:25;;;;;;;4.10;2.50;;;;;;;;;;107146;1255;60297;-82
2023/08/11 12:29:52;;;;;;;1.80;1.30;;;;;;;;;;107115;1253;60345;-82
2023/08/11 12:32:18;;;;;;;4.40;2.00;;;;;;;;;;107140;1253;60486;-82
2023/08/11 12:34:44;;;;;;;2.30;1.70;;;;;;;;;;107153;1251;60317;-82
2023/08/11 12:37:14;;;;;;;1.90;1.30;;;;;;;;;;107071;1255;60454;-82
2023/08/11 12:39:40;;;;;;;3.20;1.60;;;;;;;;;;107119;1251;60457;-82
2023/08/11 12:42:09;;;;;;;3.90;1.50;;;;;;;;;;107111;1253;60448;-82
2023/08/11 12:44:35;;;;;;;3.40;1.20;;;;;;;;;;107091;1251;60540;-82
2023/08/11 12:47:02;;;;;;;2.70;1.60;;;;;;;;;;107740;1250;60288;-82
2023/08/11 12:49:28;;;;;;;3.60;1.60;;;;;;;;;;107224;1251;60422;-82
2023/08/11 12:51:54;;;;;;;5.60;2.20;;;;;;;;;;107146;1253;60439;-82
2023/08/11 12:54:21;;;;;;;5.50;1.50;;;;;;;;;;107167;1251;60431;-82
2023/08/11 12:56:47;;;;;;;3.00;1.80;;;;;;;;;;107363;1252;60537;-82
2023/08/11 12:59:14;;;;;;;3.40;1.70;;;;;;;;;;107448;1251;60441;-82
2023/08/11 13:01:41;;;;;;;2.20;1.40;;;;;;;;;;107300;1253;60464;-82
2023/08/11 13:04:07;;;;;;;8.80;7.70;;;;;;;;;;107400;1253;60499;-82
2023/08/11 13:06:34;;;;;;;15.90;14.20;;;;;;;;;;107382;1251;60780;-82
2023/08/11 13:09:00;;;;;;;4.40;3.50;;;;;;;;;;107108;1252;60544;-82
2023/08/11 13:11:27;;;;;;;3.20;2.60;;;;;;;;;;107237;1253;60882;-83
2023/08/11 13:13:53;;;;;;;1.70;1.30;;;;;;;;;;107205;1253;61913;-82
2023/08/11 13:16:20;;;;;;;2.00;1.20;;;;;;;;;;107327;1253;60409;-83
2023/08/11 13:18:46;;;;;;;1.90;1.40;;;;;;;;;;107173;1255;60532;-83
2023/08/11 13:21:13;;;;;;;2.50;1.50;;;;;;;;;;107110;1253;59126;-83
2023/08/11 13:23:39;;;;;;;2.70;1.40;;;;;;;;;;107153;1253;60630;-83
2023/08/11 13:26:05;;;;;;;2.90;1.60;;;;;;;;;;107116;1251;60456;-83
2023/08/11 13:28:32;;;;;;;2.10;1.70;;;;;;;;;;107138;1251;60981;-83
2023/08/11 13:30:59;;;;;;;2.40;2.00;;;;;;;;;;107153;1253;60480;-83
2023/08/11 13:33:26;;;;;;;2.60;2.00;;;;;;;;;;107117;1253;61082;-83
2023/08/11 13:35:53;;;;;;;2.40;1.60;;;;;;;;;;107083;1251;59100;-83
2023/08/11 13:38:19;;;;;;;3.20;1.30;;;;;;;;;;107097;1253;60414;-82
2023/08/11 13:40:47;;;;;;;4.80;2.30;;;;;;;;;;107106;1252;60304;-82
2023/08/11 13:43:14;;;;;;;3.70;2.20;;;;;;;;;;107155;1253;60506;-82
2023/08/11 13:45:40;;;;;;;2.60;1.60;;;;;;;;;;107007;1251;60626;-82
2023/08/11 13:48:07;;;;;;;4.00;1.60;;;;;;;;;;107082;1255;59428;-82
2023/08/11 13:50:33;;;;;;;3.10;1.80;;;;;;;;;;107113;1253;60470;-82
2023/08/11 13:53:00;;;;;;;3.70;1.30;;;;;;;;;;107106;1251;60334;-82
2023/08/11 13:55:26;;;;;;;2.80;1.40;;;;;;;;;;107083;1255;60454;-82
2023/08/11 13:57:53;;;;;;;2.50;1.40;;;;;;;;;;107053;1255;58937;-82
2023/08/11 14:00:20;;;;;;;3.00;1.80;;;;;;;;;;107182;1252;60460;-82
2023/08/11 14:02:47;;;;;;;2.30;1.50;;;;;;;;;;107058;1255;61160;-82
2023/08/11 14:05:13;;;;;;;2.20;1.80;;;;;;;;;;107089;1254;60403;-82
2023/08/11 14:07:40;;;;;;;3.30;1.40;;;;;;;;;;107123;1253;60438;-82
2023/08/11 14:10:06;;;;;;;3.00;1.90;;;;;;;;;;107175;1253;60422;-82
2023/08/11 14:12:33;;;;;;;2.20;1.70;;;;;;;;;;107113;1251;59046;-82
2023/08/11 14:15:00;;;;;;;2.50;1.70;;;;;;;;;;107304;1251;60464;-82
2023/08/11 14:17:26;;;;;;;4.50;1.50;;;;;;;;;;107440;1253;60369;-82
2023/08/11 14:19:53;;;;;;;3.30;1.70;;;;;;;;;;107360;1251;60439;-82
2023/08/11 14:22:19;;;;;;;3.60;1.30;;;;;;;;;;107304;1253;59066;-82
2023/08/11 14:24:45;;;;;;;3.70;2.00;;;;;;;;;;107200;1253;60662;-82